Terminal Aerodrome Forecast
Issued by NWS

Home | Current Version | Previous Version | Text Only | Print | Product List | Glossary On
Versions: 1 2 3 4 5 6 7 8 9 10 11 12
000
FTUS43 KDMX 201736
TAFOTM
TAF
KOTM 201736Z 2018/2118 20013G20KT P6SM FEW080 SCT150
     FM202300 19009KT P6SM SCT070 BKN150
     FM210800 VRB06KT 5SM BR VCTS SCT035CB OVC070=

USA.gov is the U.S. government's official web portal to all federal, state and local government web resources and services.